sensor_id;sensor_type;location;lat;lon;timestamp;temperature;humidity
18291;DHT22;9271;48.590;8.866;2023-10-19T00:00:30;13.30;99.90
18291;DHT22;9271;48.590;8.866;2023-10-19T00:02:59;13.30;99.90
18291;DHT22;9271;48.590;8.866;2023-10-19T00:05:28;13.30;99.90
18291;DHT22;9271;48.590;8.866;2023-10-19T00:07:56;13.30;99.90
18291;DHT22;9271;48.590;8.866;2023-10-19T00:10:25;13.20;99.90
18291;DHT22;9271;48.590;8.866;2023-10-19T00:12:54;13.10;99.90
18291;DHT22;9271;48.590;8.866;2023-10-19T00:15:25;13.30;99.90
18291;DHT22;9271;48.590;8.866;2023-10-19T00:17:55;13.20;99.90
18291;DHT22;9271;48.590;8.866;2023-10-19T00:20:22;13.30;99.90
18291;DHT22;9271;48.590;8.866;2023-10-19T00:23:14;13.40;99.90
18291;DHT22;9271;48.590;8.866;2023-10-19T00:25:44;13.40;99.90
18291;DHT22;9271;48.590;8.866;2023-10-19T00:28:10;13.60;99.90
18291;DHT22;9271;48.590;8.866;2023-10-19T00:30:40;13.70;99.90
18291;DHT22;9271;48.590;8.866;2023-10-19T00:33:08;13.60;99.90
18291;DHT22;9271;48.590;8.866;2023-10-19T00:35:42;13.70;99.90
18291;DHT22;9271;48.590;8.866;2023-10-19T00:38:13;13.80;99.90
18291;DHT22;9271;48.590;8.866;2023-10-19T00:40:53;13.90;99.90
18291;DHT22;9271;48.590;8.866;2023-10-19T00:43:28;13.90;99.90
18291;DHT22;9271;48.590;8.866;2023-10-19T00:45:58;14.10;99.90
18291;DHT22;9271;48.590;8.866;2023-10-19T00:48:27;14.00;99.90
18291;DHT22;9271;48.590;8.866;2023-10-19T00:50:54;13.80;99.90
18291;DHT22;9271;48.590;8.866;2023-10-19T00:56:02;13.10;99.90
18291;DHT22;9271;48.590;8.866;2023-10-19T00:58:31;13.30;99.90
18291;DHT22;9271;48.590;8.866;2023-10-19T01:01:01;13.60;99.90
18291;DHT22;9271;48.590;8.866;2023-10-19T01:03:31;13.90;99.90
18291;DHT22;9271;48.590;8.866;2023-10-19T01:06:02;14.10;99.90
18291;DHT22;9271;48.590;8.866;2023-10-19T01:08:37;14.10;99.90
18291;DHT22;9271;48.590;8.866;2023-10-19T01:11:08;14.10;99.90
18291;DHT22;9271;48.590;8.866;2023-10-19T01:13:36;14.20;99.90
18291;DHT22;9271;48.590;8.866;2023-10-19T01:16:03;14.30;99.90
18291;DHT22;9271;48.590;8.866;2023-10-19T01:18:30;14.10;99.90
18291;DHT22;9271;48.590;8.866;2023-10-19T01:20:58;14.00;99.90
18291;DHT22;9271;48.590;8.866;2023-10-19T01:23:29;14.00;99.90
18291;DHT22;9271;48.590;8.866;2023-10-19T01:25:58;14.00;99.90
18291;DHT22;9271;48.590;8.866;2023-10-19T01:28:34;13.60;99.90
18291;DHT22;9271;48.590;8.866;2023-10-19T01:31:14;13.80;99.90
18291;DHT22;9271;48.590;8.866;2023-10-19T01:33:42;13.90;99.90
18291;DHT22;9271;48.590;8.866;2023-10-19T01:36:09;14.00;99.90
18291;DHT22;9271;48.590;8.866;2023-10-19T01:38:42;14.10;99.90
18291;DHT22;9271;48.590;8.866;2023-10-19T01:41:09;14.10;99.90
18291;DHT22;9271;48.590;8.866;2023-10-19T01:43:40;14.00;99.90
18291;DHT22;9271;48.590;8.866;2023-10-19T01:46:06;14.10;99.90
18291;DHT22;9271;48.590;8.866;2023-10-19T01:48:38;14.10;99.90
18291;DHT22;9271;48.590;8.866;2023-10-19T01:51:06;14.10;99.90
18291;DHT22;9271;48.590;8.866;2023-10-19T01:53:36;14.40;99.90
18291;DHT22;9271;48.590;8.866;2023-10-19T01:56:06;14.30;99.90
18291;DHT22;9271;48.590;8.866;2023-10-19T01:58:35;14.40;99.90
18291;DHT22;9271;48.590;8.866;2023-10-19T02:01:03;14.40;99.90
18291;DHT22;9271;48.590;8.866;2023-10-19T02:03:34;14.20;99.90
18291;DHT22;9271;48.590;8.866;2023-10-19T02:06:02;14.10;99.90
18291;DHT22;9271;48.590;8.866;2023-10-19T02:08:36;14.20;99.90
18291;DHT22;9271;48.590;8.866;2023-10-19T02:11:05;14.20;99.90
18291;DHT22;9271;48.590;8.866;2023-10-19T02:13:41;14.00;99.90
18291;DHT22;9271;48.590;8.866;2023-10-19T02:16:09;14.00;99.90
18291;DHT22;9271;48.590;8.866;2023-10-19T02:18:34;14.20;99.90
18291;DHT22;9271;48.590;8.866;2023-10-19T02:21:01;14.10;99.90
18291;DHT22;9271;48.590;8.866;2023-10-19T02:23:31;13.80;99.90
18291;DHT22;9271;48.590;8.866;2023-10-19T02:25:58;13.90;99.90
18291;DHT22;9271;48.590;8.866;2023-10-19T02:28:25;13.90;99.90
18291;DHT22;9271;48.590;8.866;2023-10-19T02:30:57;14.00;99.90
18291;DHT22;9271;48.590;8.866;2023-10-19T02:33:23;14.20;99.90
18291;DHT22;9271;48.590;8.866;2023-10-19T02:35:52;14.20;99.90
18291;DHT22;9271;48.590;8.866;2023-10-19T02:38:17;14.10;99.90
18291;DHT22;9271;48.590;8.866;2023-10-19T02:40:44;14.10;99.90
18291;DHT22;9271;48.590;8.866;2023-10-19T02:43:11;13.90;99.90
18291;DHT22;9271;48.590;8.866;2023-10-19T02:45:39;13.90;99.90
18291;DHT22;9271;48.590;8.866;2023-10-19T02:48:07;14.10;99.90
18291;DHT22;9271;48.590;8.866;2023-10-19T02:50:37;14.00;99.90
18291;DHT22;9271;48.590;8.866;2023-10-19T02:53:03;14.00;99.90
18291;DHT22;9271;48.590;8.866;2023-10-19T02:55:31;14.00;99.90
18291;DHT22;9271;48.590;8.866;2023-10-19T02:57:56;14.10;99.90
18291;DHT22;9271;48.590;8.866;2023-10-19T03:00:24;13.90;99.90
18291;DHT22;9271;48.590;8.866;2023-10-19T03:02:59;14.00;99.90
18291;DHT22;9271;48.590;8.866;2023-10-19T03:05:26;14.10;99.90
18291;DHT22;9271;48.590;8.866;2023-10-19T03:07:52;14.20;99.90
18291;DHT22;9271;48.590;8.866;2023-10-19T03:10:19;14.20;99.90
18291;DHT22;9271;48.590;8.866;2023-10-19T03:12:49;14.10;99.90
18291;DHT22;9271;48.590;8.866;2023-10-19T03:15:16;13.80;99.90
18291;DHT22;9271;48.590;8.866;2023-10-19T03:17:44;13.70;99.90
18291;DHT22;9271;48.590;8.866;2023-10-19T03:20:12;13.80;99.90
18291;DHT22;9271;48.590;8.866;2023-10-19T03:22:42;14.00;99.90
18291;DHT22;9271;48.590;8.866;2023-10-19T03:25:11;14.10;99.90
18291;DHT22;9271;48.590;8.866;2023-10-19T03:27:54;14.10;99.90
18291;DHT22;9271;48.590;8.866;2023-10-19T03:30:21;14.10;99.90
18291;DHT22;9271;48.590;8.866;2023-10-19T03:32:50;14.10;99.90
18291;DHT22;9271;48.590;8.866;2023-10-19T03:35:19;13.90;99.90
18291;DHT22;9271;48.590;8.866;2023-10-19T03:37:46;13.80;99.90
18291;DHT22;9271;48.590;8.866;2023-10-19T03:40:15;14.00;99.90
18291;DHT22;9271;48.590;8.866;2023-10-19T03:42:56;14.00;99.90
18291;DHT22;9271;48.590;8.866;2023-10-19T03:45:23;14.00;99.90
18291;DHT22;9271;48.590;8.866;2023-10-19T03:47:51;14.20;99.90
18291;DHT22;9271;48.590;8.866;2023-10-19T03:50:22;14.20;99.90
18291;DHT22;9271;48.590;8.866;2023-10-19T03:52:50;14.20;99.90
18291;DHT22;9271;48.590;8.866;2023-10-19T03:55:17;14.30;99.90
18291;DHT22;9271;48.590;8.866;2023-10-19T03:57:44;14.30;99.90
18291;DHT22;9271;48.590;8.866;2023-10-19T04:00:16;14.20;99.90
18291;DHT22;9271;48.590;8.866;2023-10-19T04:02:44;14.20;99.90
18291;DHT22;9271;48.590;8.866;2023-10-19T04:05:12;14.30;99.90
18291;DHT22;9271;48.590;8.866;2023-10-19T04:07:47;14.30;99.90
18291;DHT22;9271;48.590;8.866;2023-10-19T04:10:19;14.30;99.90
18291;DHT22;9271;48.590;8.866;2023-10-19T04:12:56;14.20;99.90
18291;DHT22;9271;48.590;8.866;2023-10-19T04:15:25;14.30;99.90
18291;DHT22;9271;48.590;8.866;2023-10-19T04:17:52;14.30;99.90
18291;DHT22;9271;48.590;8.866;2023-10-19T04:20:20;14.40;99.90
18291;DHT22;9271;48.590;8.866;2023-10-19T04:22:56;14.40;99.90
18291;DHT22;9271;48.590;8.866;2023-10-19T04:25:36;14.20;99.90
18291;DHT22;9271;48.590;8.866;2023-10-19T04:28:03;13.80;99.90
18291;DHT22;9271;48.590;8.866;2023-10-19T04:30:30;13.90;99.90
18291;DHT22;9271;48.590;8.866;2023-10-19T04:32:59;13.90;99.90
18291;DHT22;9271;48.590;8.866;2023-10-19T04:35:27;14.00;99.90
18291;DHT22;9271;48.590;8.866;2023-10-19T04:37:59;14.00;99.90
18291;DHT22;9271;48.590;8.866;2023-10-19T04:40:27;14.20;99.90
18291;DHT22;9271;48.590;8.866;2023-10-19T04:42:54;14.10;99.90
18291;DHT22;9271;48.590;8.866;2023-10-19T04:45:20;14.10;99.90
18291;DHT22;9271;48.590;8.866;2023-10-19T04:47:50;14.00;99.90
18291;DHT22;9271;48.590;8.866;2023-10-19T04:50:18;14.20;99.90
18291;DHT22;9271;48.590;8.866;2023-10-19T04:52:44;14.20;99.90
18291;DHT22;9271;48.590;8.866;2023-10-19T04:55:12;14.10;99.90
18291;DHT22;9271;48.590;8.866;2023-10-19T04:57:39;14.30;99.90
18291;DHT22;9271;48.590;8.866;2023-10-19T05:00:06;14.50;99.90
18291;DHT22;9271;48.590;8.866;2023-10-19T05:02:38;14.50;99.90
18291;DHT22;9271;48.590;8.866;2023-10-19T05:05:05;14.40;99.90
18291;DHT22;9271;48.590;8.866;2023-10-19T05:07:32;14.30;99.90
18291;DHT22;9271;48.590;8.866;2023-10-19T05:09:59;14.20;99.90
18291;DHT22;9271;48.590;8.866;2023-10-19T05:12:27;14.10;99.90
18291;DHT22;9271;48.590;8.866;2023-10-19T05:14:53;14.00;99.90
18291;DHT22;9271;48.590;8.866;2023-10-19T05:17:20;13.90;99.90
18291;DHT22;9271;48.590;8.866;2023-10-19T05:19:49;13.90;99.90
18291;DHT22;9271;48.590;8.866;2023-10-19T05:22:17;13.90;99.90
18291;DHT22;9271;48.590;8.866;2023-10-19T05:24:43;14.00;99.90
18291;DHT22;9271;48.590;8.866;2023-10-19T05:27:10;14.20;99.90
18291;DHT22;9271;48.590;8.866;2023-10-19T05:29:38;14.20;99.90
18291;DHT22;9271;48.590;8.866;2023-10-19T05:32:05;14.40;99.90
18291;DHT22;9271;48.590;8.866;2023-10-19T05:34:32;14.50;99.90
18291;DHT22;9271;48.590;8.866;2023-10-19T05:37:01;14.50;99.90
18291;DHT22;9271;48.590;8.866;2023-10-19T05:39:30;14.50;99.90
18291;DHT22;9271;48.590;8.866;2023-10-19T05:41:59;14.60;99.90
18291;DHT22;9271;48.590;8.866;2023-10-19T05:44:26;14.60;99.90
18291;DHT22;9271;48.590;8.866;2023-10-19T05:46:54;14.70;99.90
18291;DHT22;9271;48.590;8.866;2023-10-19T05:49:22;14.80;99.90
18291;DHT22;9271;48.590;8.866;2023-10-19T05:51:49;14.70;99.90
18291;DHT22;9271;48.590;8.866;2023-10-19T05:54:16;14.80;99.90
18291;DHT22;9271;48.590;8.866;2023-10-19T05:56:43;14.80;99.90
18291;DHT22;9271;48.590;8.866;2023-10-19T05:59:11;14.80;99.90
18291;DHT22;9271;48.590;8.866;2023-10-19T06:01:38;14.60;99.90
18291;DHT22;9271;48.590;8.866;2023-10-19T06:04:08;14.60;99.90
18291;DHT22;9271;48.590;8.866;2023-10-19T06:06:36;14.60;99.90
18291;DHT22;9271;48.590;8.866;2023-10-19T06:09:03;14.50;99.90
18291;DHT22;9271;48.590;8.866;2023-10-19T06:11:33;14.60;99.90
18291;DHT22;9271;48.590;8.866;2023-10-19T06:14:03;14.60;99.90
18291;DHT22;9271;48.590;8.866;2023-10-19T06:16:32;14.60;99.90
18291;DHT22;9271;48.590;8.866;2023-10-19T06:18:59;14.30;99.90
18291;DHT22;9271;48.590;8.866;2023-10-19T06:21:27;14.30;99.90
18291;DHT22;9271;48.590;8.866;2023-10-19T06:23:55;14.30;99.90
18291;DHT22;9271;48.590;8.866;2023-10-19T06:26:22;14.20;99.90
18291;DHT22;9271;48.590;8.866;2023-10-19T06:28:48;14.20;99.90
18291;DHT22;9271;48.590;8.866;2023-10-19T06:31:16;14.40;99.90
18291;DHT22;9271;48.590;8.866;2023-10-19T06:33:43;14.20;99.90
18291;DHT22;9271;48.590;8.866;2023-10-19T06:36:10;14.20;99.90
18291;DHT22;9271;48.590;8.866;2023-10-19T06:38:38;14.20;99.90
18291;DHT22;9271;48.590;8.866;2023-10-19T06:41:11;14.10;99.90
18291;DHT22;9271;48.590;8.866;2023-10-19T06:43:38;14.30;99.90
18291;DHT22;9271;48.590;8.866;2023-10-19T06:46:06;14.00;99.90
18291;DHT22;9271;48.590;8.866;2023-10-19T06:48:32;14.10;99.90
18291;DHT22;9271;48.590;8.866;2023-10-19T06:51:01;14.30;99.90
18291;DHT22;9271;48.590;8.866;2023-10-19T06:53:27;14.30;99.90
18291;DHT22;9271;48.590;8.866;2023-10-19T06:55:55;14.50;99.90
18291;DHT22;9271;48.590;8.866;2023-10-19T06:58:22;14.60;99.90
18291;DHT22;9271;48.590;8.866;2023-10-19T07:00:52;14.70;99.90
18291;DHT22;9271;48.590;8.866;2023-10-19T07:03:25;14.20;99.90
18291;DHT22;9271;48.590;8.866;2023-10-19T07:05:53;14.10;99.90
18291;DHT22;9271;48.590;8.866;2023-10-19T07:08:20;14.40;99.90
18291;DHT22;9271;48.590;8.866;2023-10-19T07:10:47;14.30;99.90
18291;DHT22;9271;48.590;8.866;2023-10-19T07:13:16;14.70;99.90
18291;DHT22;9271;48.590;8.866;2023-10-19T07:15:45;15.00;99.90
18291;DHT22;9271;48.590;8.866;2023-10-19T07:18:11;15.30;99.90
18291;DHT22;9271;48.590;8.866;2023-10-19T07:20:39;15.50;99.90
18291;DHT22;9271;48.590;8.866;2023-10-19T07:23:08;15.50;99.90
18291;DHT22;9271;48.590;8.866;2023-10-19T07:25:43;15.40;99.90
18291;DHT22;9271;48.590;8.866;2023-10-19T07:28:11;14.60;99.90
18291;DHT22;9271;48.590;8.866;2023-10-19T07:30:39;14.80;99.90
18291;DHT22;9271;48.590;8.866;2023-10-19T07:33:06;15.10;99.90
18291;DHT22;9271;48.590;8.866;2023-10-19T07:35:35;15.30;99.90
18291;DHT22;9271;48.590;8.866;2023-10-19T07:38:04;15.70;99.90
18291;DHT22;9271;48.590;8.866;2023-10-19T07:40:33;15.80;99.90
18291;DHT22;9271;48.590;8.866;2023-10-19T07:43:00;16.10;99.90
18291;DHT22;9271;48.590;8.866;2023-10-19T07:45:27;16.30;99.90
18291;DHT22;9271;48.590;8.866;2023-10-19T07:47:55;16.40;99.90
18291;DHT22;9271;48.590;8.866;2023-10-19T07:50:22;16.50;99.90
18291;DHT22;9271;48.590;8.866;2023-10-19T07:52:50;17.00;99.90
18291;DHT22;9271;48.590;8.866;2023-10-19T07:55:18;17.30;99.90
18291;DHT22;9271;48.590;8.866;2023-10-19T07:57:45;17.80;99.90
18291;DHT22;9271;48.590;8.866;2023-10-19T08:00:13;17.30;99.90
18291;DHT22;9271;48.590;8.866;2023-10-19T08:02:40;17.80;99.90
18291;DHT22;9271;48.590;8.866;2023-10-19T08:05:12;17.80;99.90
18291;DHT22;9271;48.590;8.866;2023-10-19T08:07:39;18.80;99.90
18291;DHT22;9271;48.590;8.866;2023-10-19T08:10:09;18.60;99.90
18291;DHT22;9271;48.590;8.866;2023-10-19T08:12:36;19.50;99.90
18291;DHT22;9271;48.590;8.866;2023-10-19T08:15:03;21.30;99.90
18291;DHT22;9271;48.590;8.866;2023-10-19T08:17:32;22.20;99.90
18291;DHT22;9271;48.590;8.866;2023-10-19T08:19:59;23.00;99.40
18291;DHT22;9271;48.590;8.866;2023-10-19T08:22:29;23.20;98.20
18291;DHT22;9271;48.590;8.866;2023-10-19T08:24:56;23.00;97.80
18291;DHT22;9271;48.590;8.866;2023-10-19T08:27:23;22.60;98.40
18291;DHT22;9271;48.590;8.866;2023-10-19T08:29:49;22.20;99.40
18291;DHT22;9271;48.590;8.866;2023-10-19T08:32:16;22.00;99.70
18291;DHT22;9271;48.590;8.866;2023-10-19T08:34:43;21.90;99.90
18291;DHT22;9271;48.590;8.866;2023-10-19T08:37:09;22.30;99.70
18291;DHT22;9271;48.590;8.866;2023-10-19T08:39:37;22.30;98.70
18291;DHT22;9271;48.590;8.866;2023-10-19T08:42:05;22.30;98.80
18291;DHT22;9271;48.590;8.866;2023-10-19T08:44:32;22.40;98.50
18291;DHT22;9271;48.590;8.866;2023-10-19T08:46:59;22.30;99.30
18291;DHT22;9271;48.590;8.866;2023-10-19T08:49:26;22.40;99.10
18291;DHT22;9271;48.590;8.866;2023-10-19T08:51:54;22.50;98.90
18291;DHT22;9271;48.590;8.866;2023-10-19T08:54:21;22.20;99.20
18291;DHT22;9271;48.590;8.866;2023-10-19T08:56:49;21.40;99.60
18291;DHT22;9271;48.590;8.866;2023-10-19T08:59:16;21.10;99.90
18291;DHT22;9271;48.590;8.866;2023-10-19T09:01:43;21.00;99.90
18291;DHT22;9271;48.590;8.866;2023-10-19T09:04:10;21.80;99.90
18291;DHT22;9271;48.590;8.866;2023-10-19T09:06:37;23.00;98.60
18291;DHT22;9271;48.590;8.866;2023-10-19T09:09:08;24.40;96.50
18291;DHT22;9271;48.590;8.866;2023-10-19T09:11:39;25.30;95.80
18291;DHT22;9271;48.590;8.866;2023-10-19T09:14:07;25.50;94.00
18291;DHT22;9271;48.590;8.866;2023-10-19T09:16:34;25.00;94.50
18291;DHT22;9271;48.590;8.866;2023-10-19T09:19:02;24.80;94.70
18291;DHT22;9271;48.590;8.866;2023-10-19T09:21:29;24.60;95.10
18291;DHT22;9271;48.590;8.866;2023-10-19T09:23:58;24.80;95.40
18291;DHT22;9271;48.590;8.866;2023-10-19T09:26:25;24.20;95.40
18291;DHT22;9271;48.590;8.866;2023-10-19T09:28:53;24.10;96.60
18291;DHT22;9271;48.590;8.866;2023-10-19T09:31:21;24.10;96.10
18291;DHT22;9271;48.590;8.866;2023-10-19T09:33:50;24.20;95.20
18291;DHT22;9271;48.590;8.866;2023-10-19T09:36:18;23.70;95.30
18291;DHT22;9271;48.590;8.866;2023-10-19T09:38:48;23.10;96.80
18291;DHT22;9271;48.590;8.866;2023-10-19T09:41:18;22.80;98.00
18291;DHT22;9271;48.590;8.866;2023-10-19T09:43:46;22.70;98.50
18291;DHT22;9271;48.590;8.866;2023-10-19T09:46:22;22.10;98.40
18291;DHT22;9271;48.590;8.866;2023-10-19T09:48:49;21.90;98.90
18291;DHT22;9271;48.590;8.866;2023-10-19T09:51:18;21.80;99.10
18291;DHT22;9271;48.590;8.866;2023-10-19T09:53:49;21.50;99.80
18291;DHT22;9271;48.590;8.866;2023-10-19T09:56:21;21.40;99.90
18291;DHT22;9271;48.590;8.866;2023-10-19T09:58:53;21.90;99.90
18291;DHT22;9271;48.590;8.866;2023-10-19T10:01:22;22.50;99.80
18291;DHT22;9271;48.590;8.866;2023-10-19T10:03:49;23.00;99.50
18291;DHT22;9271;48.590;8.866;2023-10-19T10:06:17;23.10;99.20
18291;DHT22;9271;48.590;8.866;2023-10-19T10:08:53;23.00;99.50
18291;DHT22;9271;48.590;8.866;2023-10-19T10:11:21;22.90;99.20
18291;DHT22;9271;48.590;8.866;2023-10-19T10:13:50;23.10;99.20
18291;DHT22;9271;48.590;8.866;2023-10-19T10:16:18;23.20;99.40
18291;DHT22;9271;48.590;8.866;2023-10-19T10:18:48;22.80;98.60
18291;DHT22;9271;48.590;8.866;2023-10-19T10:21:17;22.50;99.90
18291;DHT22;9271;48.590;8.866;2023-10-19T10:23:47;22.70;99.90
18291;DHT22;9271;48.590;8.866;2023-10-19T10:26:15;22.40;99.90
18291;DHT22;9271;48.590;8.866;2023-10-19T10:28:46;22.10;99.90
18291;DHT22;9271;48.590;8.866;2023-10-19T10:31:14;21.80;99.90
18291;DHT22;9271;48.590;8.866;2023-10-19T10:33:42;21.30;99.90
18291;DHT22;9271;48.590;8.866;2023-10-19T10:36:12;20.90;99.90
18291;DHT22;9271;48.590;8.866;2023-10-19T10:38:39;20.60;99.90
18291;DHT22;9271;48.590;8.866;2023-10-19T10:41:06;20.50;99.90
18291;DHT22;9271;48.590;8.866;2023-10-19T10:43:48;20.10;99.90
18291;DHT22;9271;48.590;8.866;2023-10-19T10:46:15;20.00;99.90
18291;DHT22;9271;48.590;8.866;2023-10-19T10:48:43;20.00;99.90
18291;DHT22;9271;48.590;8.866;2023-10-19T10:51:21;19.60;99.90
18291;DHT22;9271;48.590;8.866;2023-10-19T10:53:53;19.60;99.90
18291;DHT22;9271;48.590;8.866;2023-10-19T10:56:21;19.70;99.90
18291;DHT22;9271;48.590;8.866;2023-10-19T10:58:48;19.50;99.90
18291;DHT22;9271;48.590;8.866;2023-10-19T11:01:27;19.40;99.90
18291;DHT22;9271;48.590;8.866;2023-10-19T11:04:05;19.50;99.90
18291;DHT22;9271;48.590;8.866;2023-10-19T11:06:33;19.60;99.90
18291;DHT22;9271;48.590;8.866;2023-10-19T11:09:11;19.40;99.90
18291;DHT22;9271;48.590;8.866;2023-10-19T11:11:43;19.60;99.90
18291;DHT22;9271;48.590;8.866;2023-10-19T11:14:10;19.50;99.90
18291;DHT22;9271;48.590;8.866;2023-10-19T11:16:37;19.40;99.90
18291;DHT22;9271;48.590;8.866;2023-10-19T11:19:05;19.20;99.90
18291;DHT22;9271;48.590;8.866;2023-10-19T11:21:33;19.20;99.90
18291;DHT22;9271;48.590;8.866;2023-10-19T11:24:00;19.20;99.90
18291;DHT22;9271;48.590;8.866;2023-10-19T11:26:27;19.30;99.90
18291;DHT22;9271;48.590;8.866;2023-10-19T11:28:58;19.50;99.90
18291;DHT22;9271;48.590;8.866;2023-10-19T11:31:26;19.50;99.90
18291;DHT22;9271;48.590;8.866;2023-10-19T11:33:55;19.60;99.90
18291;DHT22;9271;48.590;8.866;2023-10-19T11:36:22;19.70;99.90
18291;DHT22;9271;48.590;8.866;2023-10-19T11:38:52;19.50;99.90
18291;DHT22;9271;48.590;8.866;2023-10-19T11:41:19;19.40;99.90
18291;DHT22;9271;48.590;8.866;2023-10-19T11:43:47;19.30;99.90
18291;DHT22;9271;48.590;8.866;2023-10-19T11:46:15;19.00;99.90
18291;DHT22;9271;48.590;8.866;2023-10-19T11:48:44;18.90;99.90
18291;DHT22;9271;48.590;8.866;2023-10-19T11:51:11;19.00;99.90
18291;DHT22;9271;48.590;8.866;2023-10-19T11:53:39;19.00;99.90
18291;DHT22;9271;48.590;8.866;2023-10-19T11:56:08;18.90;99.90
18291;DHT22;9271;48.590;8.866;2023-10-19T11:58:36;18.90;99.90
18291;DHT22;9271;48.590;8.866;2023-10-19T12:01:05;18.90;99.90
18291;DHT22;9271;48.590;8.866;2023-10-19T12:03:34;18.90;99.90
18291;DHT22;9271;48.590;8.866;2023-10-19T12:06:02;18.90;99.90
18291;DHT22;9271;48.590;8.866;2023-10-19T12:08:31;18.90;99.90
18291;DHT22;9271;48.590;8.866;2023-10-19T12:10:58;18.80;99.90
18291;DHT22;9271;48.590;8.866;2023-10-19T12:13:28;18.40;99.90
18291;DHT22;9271;48.590;8.866;2023-10-19T12:15:55;18.20;99.90
18291;DHT22;9271;48.590;8.866;2023-10-19T12:18:24;17.80;99.90
18291;DHT22;9271;48.590;8.866;2023-10-19T12:20:53;18.20;99.90
18291;DHT22;9271;48.590;8.866;2023-10-19T12:23:22;18.80;99.90
18291;DHT22;9271;48.590;8.866;2023-10-19T12:25:49;19.00;99.90
18291;DHT22;9271;48.590;8.866;2023-10-19T12:28:15;18.90;99.90
18291;DHT22;9271;48.590;8.866;2023-10-19T12:30:43;19.00;99.90
18291;DHT22;9271;48.590;8.866;2023-10-19T12:33:10;18.90;99.90
18291;DHT22;9271;48.590;8.866;2023-10-19T12:35:41;18.60;99.90
18291;DHT22;9271;48.590;8.866;2023-10-19T12:38:15;18.40;99.90
18291;DHT22;9271;48.590;8.866;2023-10-19T12:40:43;18.70;99.90
18291;DHT22;9271;48.590;8.866;2023-10-19T12:43:11;19.00;99.90
18291;DHT22;9271;48.590;8.866;2023-10-19T12:45:39;19.10;99.90
18291;DHT22;9271;48.590;8.866;2023-10-19T12:48:08;18.50;99.90
18291;DHT22;9271;48.590;8.866;2023-10-19T12:50:37;18.70;99.90
18291;DHT22;9271;48.590;8.866;2023-10-19T12:53:04;18.90;99.90
18291;DHT22;9271;48.590;8.866;2023-10-19T12:55:32;19.10;99.90
18291;DHT22;9271;48.590;8.866;2023-10-19T12:57:58;19.60;99.90
18291;DHT22;9271;48.590;8.866;2023-10-19T13:00:32;19.90;99.90
18291;DHT22;9271;48.590;8.866;2023-10-19T13:03:08;20.20;99.90
18291;DHT22;9271;48.590;8.866;2023-10-19T13:05:38;20.30;99.90
18291;DHT22;9271;48.590;8.866;2023-10-19T13:08:07;20.40;99.90
18291;DHT22;9271;48.590;8.866;2023-10-19T13:10:35;20.30;99.90
18291;DHT22;9271;48.590;8.866;2023-10-19T13:13:04;20.30;99.90
18291;DHT22;9271;48.590;8.866;2023-10-19T13:15:31;20.30;99.90
18291;DHT22;9271;48.590;8.866;2023-10-19T13:18:00;20.10;99.90
18291;DHT22;9271;48.590;8.866;2023-10-19T13:20:28;20.10;99.90
18291;DHT22;9271;48.590;8.866;2023-10-19T13:22:59;19.70;99.90
18291;DHT22;9271;48.590;8.866;2023-10-19T13:25:26;19.60;99.90
18291;DHT22;9271;48.590;8.866;2023-10-19T13:28:05;19.60;99.90
18291;DHT22;9271;48.590;8.866;2023-10-19T13:30:36;19.40;99.90
18291;DHT22;9271;48.590;8.866;2023-10-19T13:33:04;19.40;99.90
18291;DHT22;9271;48.590;8.866;2023-10-19T13:35:33;19.40;99.90
18291;DHT22;9271;48.590;8.866;2023-10-19T13:38:00;19.50;99.90
18291;DHT22;9271;48.590;8.866;2023-10-19T13:40:27;19.70;99.90
18291;DHT22;9271;48.590;8.866;2023-10-19T13:42:55;19.80;99.90
18291;DHT22;9271;48.590;8.866;2023-10-19T13:45:22;19.90;99.90
18291;DHT22;9271;48.590;8.866;2023-10-19T13:47:48;20.00;99.90
18291;DHT22;9271;48.590;8.866;2023-10-19T13:50:15;20.10;99.90
18291;DHT22;9271;48.590;8.866;2023-10-19T13:52:44;20.10;99.90
18291;DHT22;9271;48.590;8.866;2023-10-19T13:55:11;20.10;99.90
18291;DHT22;9271;48.590;8.866;2023-10-19T13:57:42;20.10;99.90
18291;DHT22;9271;48.590;8.866;2023-10-19T14:00:10;20.00;99.90
18291;DHT22;9271;48.590;8.866;2023-10-19T14:02:44;19.90;99.90
18291;DHT22;9271;48.590;8.866;2023-10-19T14:05:11;19.60;99.90
18291;DHT22;9271;48.590;8.866;2023-10-19T14:07:38;19.50;99.90
18291;DHT22;9271;48.590;8.866;2023-10-19T14:10:08;19.50;99.90
18291;DHT22;9271;48.590;8.866;2023-10-19T14:12:37;19.50;99.90
18291;DHT22;9271;48.590;8.866;2023-10-19T14:15:08;19.50;99.90
18291;DHT22;9271;48.590;8.866;2023-10-19T14:17:35;19.70;99.90
18291;DHT22;9271;48.590;8.866;2023-10-19T14:20:02;19.80;99.90
18291;DHT22;9271;48.590;8.866;2023-10-19T14:22:30;19.90;99.90
18291;DHT22;9271;48.590;8.866;2023-10-19T14:24:59;19.80;99.90
18291;DHT22;9271;48.590;8.866;2023-10-19T14:27:27;19.50;99.90
18291;DHT22;9271;48.590;8.866;2023-10-19T14:29:55;19.50;99.90
18291;DHT22;9271;48.590;8.866;2023-10-19T14:32:22;19.50;99.90
18291;DHT22;9271;48.590;8.866;2023-10-19T14:34:49;19.40;99.90
18291;DHT22;9271;48.590;8.866;2023-10-19T14:37:15;19.40;99.90
18291;DHT22;9271;48.590;8.866;2023-10-19T14:39:43;19.50;99.90
18291;DHT22;9271;48.590;8.866;2023-10-19T14:42:10;19.40;99.90
18291;DHT22;9271;48.590;8.866;2023-10-19T14:44:39;19.20;99.90
18291;DHT22;9271;48.590;8.866;2023-10-19T14:47:06;19.20;99.90
18291;DHT22;9271;48.590;8.866;2023-10-19T14:49:32;19.00;99.90
18291;DHT22;9271;48.590;8.866;2023-10-19T14:51:59;18.90;99.90
18291;DHT22;9271;48.590;8.866;2023-10-19T14:54:26;19.10;99.90
18291;DHT22;9271;48.590;8.866;2023-10-19T14:56:54;19.10;99.90
18291;DHT22;9271;48.590;8.866;2023-10-19T14:59:20;19.40;99.90
18291;DHT22;9271;48.590;8.866;2023-10-19T15:01:49;19.50;99.90
18291;DHT22;9271;48.590;8.866;2023-10-19T15:04:17;19.60;99.90
18291;DHT22;9271;48.590;8.866;2023-10-19T15:06:44;19.70;99.90
18291;DHT22;9271;48.590;8.866;2023-10-19T15:09:11;19.60;99.90
18291;DHT22;9271;48.590;8.866;2023-10-19T15:11:45;19.20;99.90
18291;DHT22;9271;48.590;8.866;2023-10-19T15:14:12;19.00;99.90
18291;DHT22;9271;48.590;8.866;2023-10-19T15:16:39;19.20;99.90
18291;DHT22;9271;48.590;8.866;2023-10-19T15:19:07;19.40;99.90
18291;DHT22;9271;48.590;8.866;2023-10-19T15:21:34;19.40;99.90
18291;DHT22;9271;48.590;8.866;2023-10-19T15:24:01;19.40;99.90
18291;DHT22;9271;48.590;8.866;2023-10-19T15:26:27;19.40;99.90
18291;DHT22;9271;48.590;8.866;2023-10-19T15:28:54;19.40;99.90
18291;DHT22;9271;48.590;8.866;2023-10-19T15:31:20;19.20;99.90
18291;DHT22;9271;48.590;8.866;2023-10-19T15:33:47;19.00;99.90
18291;DHT22;9271;48.590;8.866;2023-10-19T15:36:15;18.90;99.90
18291;DHT22;9271;48.590;8.866;2023-10-19T15:38:42;18.60;99.90
18291;DHT22;9271;48.590;8.866;2023-10-19T15:41:09;17.90;99.90
18291;DHT22;9271;48.590;8.866;2023-10-19T15:43:37;17.50;99.90
18291;DHT22;9271;48.590;8.866;2023-10-19T15:46:04;17.40;99.90
18291;DHT22;9271;48.590;8.866;2023-10-19T15:48:32;17.80;99.90
18291;DHT22;9271;48.590;8.866;2023-10-19T15:50:59;17.90;99.90
18291;DHT22;9271;48.590;8.866;2023-10-19T15:53:27;18.10;99.90
18291;DHT22;9271;48.590;8.866;2023-10-19T15:55:54;18.20;99.90